createdAt,value
2019-02-19T00:00:32.605Z,80.33
2019-02-19T00:03:00.735Z,80.03
2019-02-19T00:05:28.812Z,82.20
2019-02-19T00:07:56.944Z,88.90
2019-02-19T00:10:25.187Z,91.83
2019-02-19T00:12:53.581Z,87.90
2019-02-19T00:15:21.371Z,91.93
2019-02-19T00:17:49.253Z,91.03
2019-02-19T00:20:17.257Z,86.40
2019-02-19T00:22:45.701Z,89.20
2019-02-19T00:25:13.541Z,97.37
2019-02-19T00:27:41.596Z,85.53
2019-02-19T00:30:09.500Z,87.20
2019-02-19T00:32:37.500Z,88.73
2019-02-19T00:35:05.603Z,85.33
2019-02-19T00:37:33.398Z,83.30
2019-02-19T00:40:01.393Z,74.17
2019-02-19T00:42:29.401Z,80.07
2019-02-19T00:44:57.346Z,79.53
2019-02-19T00:47:25.144Z,72.77
2019-02-19T00:49:53.129Z,74.23
2019-02-19T00:52:20.968Z,85.40
2019-02-19T00:54:48.824Z,79.30
2019-02-19T00:57:16.791Z,114.13
2019-02-19T00:59:44.717Z,100.17
2019-02-19T01:02:12.928Z,91.40
2019-02-19T01:04:40.803Z,77.63
2019-02-19T01:07:08.856Z,70.20
2019-02-19T01:09:36.906Z,82.03
2019-02-19T01:12:04.822Z,73.30
2019-02-19T01:14:32.890Z,84.03
2019-02-19T01:17:00.940Z,74.93
2019-02-19T01:19:28.766Z,98.13
2019-02-19T01:21:56.579Z,84.00
2019-02-19T01:24:24.614Z,84.17
2019-02-19T01:26:52.468Z,78.63
2019-02-19T01:29:20.465Z,71.07
2019-02-19T01:31:48.470Z,76.17
2019-02-19T01:34:16.372Z,69.37
2019-02-19T01:36:44.288Z,72.57
2019-02-19T01:39:12.343Z,106.40
2019-02-19T01:41:40.269Z,98.90
2019-02-19T01:44:08.126Z,84.80
2019-02-19T01:46:36.114Z,79.73
2019-02-19T01:49:04.027Z,88.37
2019-02-19T01:51:31.965Z,77.03
2019-02-19T01:54:00.287Z,83.00
2019-02-19T01:56:31.209Z,84.50
2019-02-19T01:58:59.125Z,77.57
2019-02-19T02:01:27.481Z,76.70
2019-02-19T02:03:55.617Z,71.27
2019-02-19T02:06:24.344Z,75.57
2019-02-19T02:08:52.406Z,80.87
2019-02-19T02:11:20.280Z,78.87
2019-02-19T02:13:50.322Z,84.60
2019-02-19T02:16:19.281Z,68.70
2019-02-19T02:18:49.816Z,73.97
2019-02-19T02:21:17.738Z,72.63
2019-02-19T02:23:45.691Z,82.27
2019-02-19T02:26:13.479Z,82.57
2019-02-19T02:28:41.401Z,76.87
2019-02-19T02:31:09.581Z,72.10
2019-02-19T02:33:37.671Z,71.60
2019-02-19T02:36:05.626Z,72.20
2019-02-19T02:38:33.484Z,82.93
2019-02-19T02:41:01.528Z,71.83
2019-02-19T02:43:29.630Z,71.37
2019-02-19T02:45:57.599Z,72.17
2019-02-19T02:48:25.498Z,74.30
2019-02-19T02:50:53.644Z,69.37
2019-02-19T02:53:21.546Z,72.63
2019-02-19T02:55:50.670Z,66.57
2019-02-19T02:58:18.738Z,67.10
2019-02-19T03:00:47.056Z,70.47
2019-02-19T03:03:15.054Z,69.67
2019-02-19T03:05:56.828Z,70.67
2019-02-19T03:08:24.971Z,71.00
2019-02-19T03:10:53.026Z,62.00
2019-02-19T03:13:21.175Z,68.03
2019-02-19T03:15:50.765Z,72.73
2019-02-19T03:18:18.921Z,65.13
2019-02-19T03:20:46.784Z,62.47
2019-02-19T03:23:14.793Z,68.93
2019-02-19T03:25:42.767Z,65.27
2019-02-19T03:28:10.582Z,76.13
2019-02-19T03:30:38.479Z,70.77
2019-02-19T03:33:07.138Z,72.87
2019-02-19T03:35:35.032Z,71.83
2019-02-19T03:38:02.960Z,81.27
2019-02-19T03:40:30.986Z,81.33
2019-02-19T03:42:58.834Z,75.80
2019-02-19T03:45:26.660Z,75.90
2019-02-19T03:47:54.587Z,70.90
2019-02-19T03:50:24.199Z,74.20
2019-02-19T03:52:52.292Z,77.00
2019-02-19T03:55:20.659Z,71.27
2019-02-19T03:57:48.563Z,71.67
2019-02-19T04:00:16.939Z,71.83
2019-02-19T04:02:45.382Z,69.10
2019-02-19T04:05:14.183Z,67.87
2019-02-19T04:07:42.168Z,73.53
2019-02-19T04:10:10.212Z,65.20
2019-02-19T04:12:39.002Z,65.90
2019-02-19T04:15:09.334Z,65.40
2019-02-19T04:17:37.598Z,57.50
2019-02-19T04:20:06.364Z,64.97
2019-02-19T04:22:34.321Z,59.23
2019-02-19T04:25:02.224Z,61.10
2019-02-19T04:27:30.191Z,65.40
2019-02-19T04:29:58.156Z,60.23
2019-02-19T04:32:26.315Z,57.33
2019-02-19T04:34:55.231Z,59.27
2019-02-19T04:37:23.224Z,60.50
2019-02-19T04:39:51.100Z,64.43
2019-02-19T04:42:19.643Z,64.30
2019-02-19T04:44:47.638Z,60.60
2019-02-19T04:47:16.608Z,65.67
2019-02-19T04:49:44.501Z,63.83
2019-02-19T04:52:12.464Z,69.13
2019-02-19T04:54:40.357Z,66.50
2019-02-19T04:57:08.761Z,55.63
2019-02-19T04:59:36.729Z,66.30
2019-02-19T05:02:04.791Z,67.03
2019-02-19T05:04:32.622Z,80.40
2019-02-19T05:07:00.568Z,82.07
2019-02-19T05:09:28.394Z,79.33
2019-02-19T05:11:56.266Z,67.83
2019-02-19T05:14:24.159Z,59.17
2019-02-19T05:16:52.071Z,58.30
2019-02-19T05:19:20.006Z,68.47
2019-02-19T05:21:47.868Z,59.57
2019-02-19T05:24:15.836Z,72.70
2019-02-19T05:26:43.833Z,64.40
2019-02-19T05:29:11.667Z,61.67
2019-02-19T05:31:39.565Z,64.13
2019-02-19T05:34:09.374Z,71.20
2019-02-19T05:36:37.323Z,68.00
2019-02-19T05:39:05.637Z,65.53
2019-02-19T05:41:33.894Z,70.57
2019-02-19T05:44:02.022Z,69.10
2019-02-19T05:46:32.396Z,67.17
2019-02-19T05:49:00.328Z,66.70
2019-02-19T05:51:28.377Z,74.87
2019-02-19T05:53:56.268Z,80.43
2019-02-19T05:56:24.178Z,74.70
2019-02-19T05:58:52.072Z,88.53
2019-02-19T06:01:19.992Z,81.20
2019-02-19T06:03:47.971Z,73.23
2019-02-19T06:06:16.340Z,77.90
2019-02-19T06:08:44.089Z,71.50
2019-02-19T06:11:11.929Z,69.60
2019-02-19T06:13:39.725Z,74.73
2019-02-19T06:16:07.712Z,75.47
2019-02-19T06:18:35.576Z,80.40
2019-02-19T06:21:03.450Z,99.13
2019-02-19T06:23:31.386Z,100.03
2019-02-19T06:26:00.508Z,98.43
2019-02-19T06:28:28.408Z,128.63
2019-02-19T06:30:56.260Z,123.60
2019-02-19T06:33:24.334Z,118.70
2019-02-19T06:35:52.254Z,124.37
2019-02-19T06:38:20.188Z,104.23
2019-02-19T06:40:48.141Z,104.57
2019-02-19T06:43:16.110Z,112.37
2019-02-19T06:45:44.188Z,112.23
2019-02-19T06:48:12.137Z,108.67
2019-02-19T06:50:40.004Z,105.33
2019-02-19T06:53:07.993Z,100.00
2019-02-19T06:55:36.056Z,103.47
2019-02-19T06:58:03.907Z,93.60
2019-02-19T07:00:31.767Z,89.17
2019-02-19T07:03:15.054Z,88.30
2019-02-19T07:05:42.954Z,82.27
2019-02-19T07:08:10.962Z,84.50
2019-02-19T07:10:38.873Z,80.93
2019-02-19T07:13:06.787Z,97.93
2019-02-19T07:15:34.800Z,82.80
2019-02-19T07:18:02.727Z,82.80
2019-02-19T07:20:30.560Z,73.17
2019-02-19T07:22:58.494Z,79.67
2019-02-19T07:25:26.338Z,72.10
2019-02-19T07:27:54.350Z,76.43
2019-02-19T07:30:22.252Z,71.70
2019-02-19T07:32:50.428Z,79.13
2019-02-19T07:35:18.714Z,65.73
2019-02-19T07:37:46.684Z,68.27
2019-02-19T07:40:14.551Z,68.53
2019-02-19T07:42:42.471Z,78.73
2019-02-19T07:45:10.489Z,73.37
2019-02-19T07:47:38.432Z,81.47
2019-02-19T07:50:06.941Z,84.27
2019-02-19T07:52:35.288Z,93.10
2019-02-19T07:55:03.378Z,89.43
2019-02-19T07:57:31.398Z,91.37
2019-02-19T07:59:59.490Z,77.80
2019-02-19T08:02:27.602Z,82.30
2019-02-19T08:04:55.668Z,79.93
2019-02-19T08:07:23.656Z,92.03
2019-02-19T08:09:51.807Z,84.30
2019-02-19T08:12:19.680Z,79.90
2019-02-19T08:14:48.687Z,79.53
2019-02-19T08:17:16.541Z,68.60
2019-02-19T08:19:44.428Z,73.17
2019-02-19T08:22:12.172Z,76.37
2019-02-19T08:24:40.191Z,73.57
2019-02-19T08:27:07.996Z,72.73
2019-02-19T08:29:35.958Z,67.97
2019-02-19T08:32:03.814Z,77.60
2019-02-19T08:34:31.738Z,70.80
2019-02-19T08:36:59.856Z,67.17
2019-02-19T08:39:27.864Z,68.00
2019-02-19T08:41:56.642Z,69.13
2019-02-19T08:44:24.596Z,42.97
2019-02-19T08:46:52.822Z,70.07
2019-02-19T08:49:20.814Z,65.37
2019-02-19T08:51:55.846Z,72.03
2019-02-19T08:54:18.397Z,64.77
2019-02-19T08:56:46.200Z,63.83
2019-02-19T08:59:14.476Z,68.07
2019-02-19T09:01:42.530Z,66.13
2019-02-19T09:04:10.557Z,68.80
2019-02-19T09:06:38.535Z,68.77
2019-02-19T09:09:07.218Z,73.37
2019-02-19T09:11:36.494Z,68.73
2019-02-19T09:14:04.602Z,70.73
2019-02-19T09:16:32.624Z,69.03
2019-02-19T09:19:00.592Z,68.40
2019-02-19T09:21:28.558Z,77.37
2019-02-19T09:23:59.298Z,66.37
2019-02-19T09:26:27.140Z,68.73
2019-02-19T09:28:55.070Z,62.40
2019-02-19T09:31:22.976Z,69.33
2019-02-19T09:33:51.020Z,61.97
2019-02-19T09:36:18.938Z,68.77
2019-02-19T09:38:47.052Z,61.10
2019-02-19T09:41:17.082Z,64.73
2019-02-19T09:43:45.133Z,64.87
2019-02-19T09:46:12.974Z,59.33
2019-02-19T09:48:41.025Z,61.10
2019-02-19T09:51:08.833Z,71.67
2019-02-19T09:53:36.905Z,73.73
2019-02-19T09:56:04.732Z,60.80
2019-02-19T09:58:32.654Z,59.43
2019-02-19T10:01:00.511Z,59.30
2019-02-19T10:03:28.513Z,55.27
2019-02-19T10:05:56.564Z,45.10
2019-02-19T10:08:24.538Z,56.00
2019-02-19T10:10:52.574Z,55.97
2019-02-19T10:13:20.595Z,53.33
2019-02-19T10:15:48.516Z,52.70
2019-02-19T10:18:16.515Z,49.23
2019-02-19T10:20:44.501Z,50.67
2019-02-19T10:23:12.365Z,47.70
2019-02-19T10:25:40.296Z,52.40
2019-02-19T10:28:08.290Z,47.20
2019-02-19T10:30:36.208Z,49.07
2019-02-19T10:33:04.168Z,47.23
2019-02-19T10:35:32.163Z,45.50
2019-02-19T10:38:00.073Z,45.23
2019-02-19T10:40:27.939Z,51.60
2019-02-19T10:42:55.907Z,48.50
2019-02-19T10:45:23.832Z,45.90
2019-02-19T10:47:53.161Z,51.13
2019-02-19T10:50:21.210Z,46.13
2019-02-19T10:52:49.185Z,44.03
2019-02-19T10:55:17.120Z,45.20
2019-02-19T10:57:45.190Z,39.33
2019-02-19T11:00:15.747Z,42.80
2019-02-19T11:02:43.618Z,39.83
2019-02-19T11:05:11.581Z,34.37
2019-02-19T11:07:41.451Z,42.87
2019-02-19T11:10:09.473Z,36.90
2019-02-19T11:12:37.641Z,41.70
2019-02-19T11:15:05.744Z,45.90
2019-02-19T11:17:33.831Z,38.00
2019-02-19T11:20:01.763Z,38.97
2019-02-19T11:22:29.779Z,36.93
2019-02-19T11:24:57.657Z,36.23
2019-02-19T11:27:25.622Z,36.93
2019-02-19T11:29:53.521Z,38.83
2019-02-19T11:32:21.388Z,33.00
2019-02-19T11:34:49.382Z,30.90
2019-02-19T11:37:17.355Z,34.23
2019-02-19T11:39:45.169Z,36.50
2019-02-19T11:42:13.089Z,37.47
2019-02-19T11:44:40.960Z,36.80
2019-02-19T11:47:10.082Z,37.03
2019-02-19T11:49:37.919Z,37.63
2019-02-19T11:52:05.734Z,38.17
2019-02-19T11:54:34.757Z,32.80
2019-02-19T11:57:02.575Z,34.87
2019-02-19T11:59:30.865Z,45.07
2019-02-19T12:01:59.123Z,28.57
2019-02-19T12:04:29.481Z,34.70
2019-02-19T12:06:57.528Z,36.37
2019-02-19T12:09:25.579Z,36.10
2019-02-19T12:11:53.524Z,28.93
2019-02-19T12:14:21.465Z,34.63
2019-02-19T12:16:49.598Z,30.83
2019-02-19T12:19:17.386Z,39.10
2019-02-19T12:21:45.526Z,27.93
2019-02-19T12:24:13.479Z,27.80
2019-02-19T12:26:41.402Z,26.80
2019-02-19T12:29:10.374Z,28.00
2019-02-19T12:31:38.243Z,34.93
2019-02-19T12:34:06.293Z,25.57
2019-02-19T12:36:34.137Z,24.30
2019-02-19T12:39:02.090Z,28.93
2019-02-19T12:41:32.041Z,29.47
2019-02-19T12:44:00.062Z,29.10
2019-02-19T12:46:28.523Z,30.47
2019-02-19T12:48:56.374Z,25.90
2019-02-19T12:51:26.427Z,26.60
2019-02-19T12:53:54.073Z,26.77
2019-02-19T12:56:21.937Z,30.67
2019-02-19T12:58:49.914Z,25.83
2019-02-19T13:01:18.063Z,27.00
2019-02-19T13:03:46.022Z,33.10
2019-02-19T13:06:14.297Z,32.63
2019-02-19T13:08:42.155Z,33.13
2019-02-19T13:11:10.282Z,37.23
2019-02-19T13:13:38.175Z,30.77
2019-02-19T13:16:06.047Z,36.13
2019-02-19T13:18:35.215Z,37.30
2019-02-19T13:21:03.057Z,28.10
2019-02-19T13:23:33.076Z,32.70
2019-02-19T13:26:01.049Z,40.27
2019-02-19T13:28:29.088Z,32.43
2019-02-19T13:30:58.702Z,39.17
2019-02-19T13:33:26.646Z,43.70
2019-02-19T13:35:54.485Z,67.67
2019-02-19T13:38:22.560Z,44.37
2019-02-19T13:40:50.412Z,34.30
2019-02-19T13:43:18.271Z,31.40
2019-02-19T13:45:46.310Z,35.20
2019-02-19T13:48:14.139Z,39.47
2019-02-19T13:50:42.168Z,42.60
2019-02-19T13:53:20.659Z,38.57
2019-02-19T13:55:51.247Z,37.53
2019-02-19T13:58:19.307Z,37.33
2019-02-19T14:00:50.075Z,38.10
2019-02-19T14:03:18.107Z,44.37
2019-02-19T14:05:46.016Z,35.80
2019-02-19T14:08:14.936Z,36.90
2019-02-19T14:10:43.125Z,36.00
2019-02-19T14:13:11.211Z,36.43
2019-02-19T14:15:52.235Z,38.33
2019-02-19T14:18:30.475Z,41.27
2019-02-19T14:21:30.157Z,41.30
2019-02-19T14:24:08.003Z,35.53
2019-02-19T14:27:04.224Z,39.50
2019-02-19T14:30:00.751Z,35.57
2019-02-19T14:32:47.809Z,31.50
2019-02-19T14:35:35.301Z,38.13
2019-02-19T14:38:37.639Z,35.30
2019-02-19T14:41:37.403Z,33.87
2019-02-19T14:44:23.754Z,39.60
2019-02-19T14:47:13.771Z,38.67
2019-02-19T14:50:09.913Z,33.90
2019-02-19T14:53:06.546Z,39.80
2019-02-19T14:56:01.938Z,33.23
2019-02-19T14:58:48.033Z,34.33
2019-02-19T15:01:53.396Z,35.70
2019-02-19T15:04:47.005Z,32.20
2019-02-19T15:07:31.539Z,32.30
2019-02-19T15:10:17.287Z,32.33
2019-02-19T15:13:02.251Z,36.77
2019-02-19T15:15:42.694Z,33.80
2019-02-19T15:18:29.095Z,32.20
2019-02-19T15:21:10.663Z,32.50
2019-02-19T15:24:08.678Z,41.23
2019-02-19T15:26:58.946Z,39.00
2019-02-19T15:29:38.513Z,36.87
2019-02-19T15:32:34.887Z,36.43
2019-02-19T15:35:09.701Z,32.87
2019-02-19T15:37:48.945Z,35.70
2019-02-19T15:40:35.117Z,38.90
2019-02-19T15:43:28.263Z,34.50
2019-02-19T15:46:24.504Z,33.53
2019-02-19T15:49:11.941Z,32.90
2019-02-19T15:52:04.985Z,35.43
2019-02-19T15:54:58.165Z,33.00
2019-02-19T15:57:41.594Z,41.23
2019-02-19T16:00:28.042Z,37.33
2019-02-19T16:03:04.368Z,43.37
2019-02-19T16:05:55.235Z,38.93
2019-02-19T16:08:54.813Z,34.33
2019-02-19T16:11:38.934Z,34.97
2019-02-19T16:14:29.170Z,38.90
2019-02-19T16:17:16.673Z,38.60
2019-02-19T16:19:59.242Z,42.97
2019-02-19T16:22:58.640Z,41.33
2019-02-19T16:25:41.296Z,38.67
2019-02-19T16:28:23.320Z,42.13
2019-02-19T16:31:29.380Z,46.20
2019-02-19T16:34:28.621Z,44.47
2019-02-19T16:37:18.861Z,39.40
2019-02-19T16:39:56.966Z,37.40
2019-02-19T16:42:43.012Z,38.93
2019-02-19T16:45:40.506Z,38.33
2019-02-19T16:48:26.591Z,36.57
2019-02-19T16:51:07.841Z,43.67
2019-02-19T16:54:06.986Z,42.40
2019-02-19T16:57:09.377Z,46.27
2019-02-19T16:59:54.978Z,49.87
2019-02-19T17:02:42.522Z,52.50
2019-02-19T17:05:28.414Z,64.10
2019-02-19T17:08:15.967Z,58.77
2019-02-19T17:10:58.287Z,56.63
2019-02-19T17:13:58.288Z,54.07
2019-02-19T17:17:02.675Z,52.80
2019-02-19T17:19:59.377Z,55.17
2019-02-19T17:22:49.451Z,57.37
2019-02-19T17:25:36.974Z,55.93
2019-02-19T17:28:16.108Z,54.73
2019-02-19T17:31:15.676Z,51.00
2019-02-19T17:34:05.711Z,49.33
2019-02-19T17:36:51.959Z,47.23
2019-02-19T17:39:31.246Z,47.30
2019-02-19T17:42:11.136Z,45.83
2019-02-19T17:44:53.491Z,43.17
2019-02-19T17:47:50.366Z,44.30
2019-02-19T17:50:41.075Z,39.87
2019-02-19T17:53:27.535Z,38.67
2019-02-19T17:56:13.691Z,49.03
2019-02-19T17:59:01.824Z,45.00
2019-02-19T18:01:48.138Z,44.60
2019-02-19T18:04:30.606Z,39.30
2019-02-19T18:07:36.400Z,42.03
2019-02-19T18:10:24.507Z,43.80
2019-02-19T18:13:10.730Z,40.27
2019-02-19T18:15:59.593Z,42.37
2019-02-19T18:18:36.783Z,48.27
2019-02-19T18:21:04.834Z,55.13
2019-02-19T18:23:32.856Z,57.97
2019-02-19T18:26:00.962Z,44.13
2019-02-19T18:28:29.539Z,49.70
2019-02-19T18:30:58.043Z,45.47
2019-02-19T18:33:26.145Z,50.37
2019-02-19T18:35:54.580Z,44.20
2019-02-19T18:38:23.084Z,40.00
2019-02-19T18:40:51.178Z,37.57
2019-02-19T18:43:19.327Z,47.93
2019-02-19T18:45:47.475Z,34.37
2019-02-19T18:48:15.402Z,34.77
2019-02-19T18:50:43.454Z,43.33
2019-02-19T18:53:11.457Z,31.33
2019-02-19T18:55:39.564Z,36.27
2019-02-19T18:58:07.493Z,27.63
2019-02-19T19:00:35.529Z,32.77
2019-02-19T19:03:04.034Z,28.03
2019-02-19T19:05:32.259Z,27.10
2019-02-19T19:08:00.231Z,24.60
2019-02-19T19:10:29.259Z,26.77
2019-02-19T19:12:58.387Z,26.13
2019-02-19T19:15:26.438Z,26.57
2019-02-19T19:17:54.562Z,27.47
2019-02-19T19:20:22.880Z,20.80
2019-02-19T19:22:50.932Z,21.10
2019-02-19T19:25:19.105Z,25.10
2019-02-19T19:27:47.176Z,25.87
2019-02-19T19:30:17.246Z,26.60
2019-02-19T19:32:45.350Z,26.30
2019-02-19T19:35:13.348Z,51.20
2019-02-19T19:37:41.366Z,65.20
2019-02-19T19:40:09.412Z,75.57
2019-02-19T19:42:37.557Z,83.63
2019-02-19T19:45:05.812Z,74.00
2019-02-19T19:47:33.879Z,80.77
2019-02-19T19:50:03.222Z,86.30
2019-02-19T19:52:31.312Z,61.87
2019-02-19T19:55:00.652Z,74.40
2019-02-19T19:57:28.741Z,57.37
2019-02-19T19:59:56.723Z,40.57
2019-02-19T20:02:24.643Z,37.07
2019-02-19T20:04:53.812Z,31.93
2019-02-19T20:07:22.182Z,33.57
2019-02-19T20:09:50.251Z,31.90
2019-02-19T20:12:18.424Z,29.87
2019-02-19T20:14:46.444Z,32.10
2019-02-19T20:17:14.369Z,33.57
2019-02-19T20:19:42.597Z,36.47
2019-02-19T20:22:10.751Z,35.67
2019-02-19T20:24:41.089Z,40.50
2019-02-19T20:27:09.236Z,36.50
2019-02-19T20:29:37.251Z,35.43
2019-02-19T20:32:05.242Z,41.70
2019-02-19T20:34:33.298Z,42.40
2019-02-19T20:37:01.662Z,39.77
2019-02-19T20:39:29.811Z,36.87
2019-02-19T20:41:59.213Z,34.70
2019-02-19T20:44:27.352Z,35.73
2019-02-19T20:46:55.440Z,38.40
2019-02-19T20:49:25.309Z,39.97
2019-02-19T20:51:53.371Z,41.37
2019-02-19T20:54:21.371Z,39.80
2019-02-19T20:56:49.480Z,44.20
2019-02-19T20:59:17.645Z,38.13
2019-02-19T21:01:45.779Z,40.67
2019-02-19T21:04:13.735Z,44.93
2019-02-19T21:06:42.773Z,40.07
2019-02-19T21:09:10.948Z,42.90
2019-02-19T21:11:40.666Z,42.13
2019-02-19T21:14:08.785Z,36.43
2019-02-19T21:16:36.730Z,42.27
2019-02-19T21:19:05.025Z,39.73
2019-02-19T21:21:33.091Z,42.53
2019-02-19T21:24:01.235Z,41.47
2019-02-19T21:26:29.323Z,44.87
2019-02-19T21:29:00.632Z,44.27
2019-02-19T21:31:28.730Z,43.67
2019-02-19T21:33:56.804Z,39.70
2019-02-19T21:36:25.004Z,37.70
2019-02-19T21:38:54.148Z,49.50
2019-02-19T21:41:22.341Z,38.20
2019-02-19T21:43:50.746Z,36.33
2019-02-19T21:46:18.910Z,44.13
2019-02-19T21:48:48.371Z,37.07
2019-02-19T21:51:16.720Z,38.70
2019-02-19T21:53:44.767Z,38.87
2019-02-19T21:56:12.960Z,35.77
2019-02-19T21:58:41.038Z,39.80
2019-02-19T22:01:10.483Z,37.30
2019-02-19T22:03:38.982Z,39.20
2019-02-19T22:06:07.390Z,38.70
2019-02-19T22:08:35.635Z,37.70
2019-02-19T22:11:06.647Z,42.33
2019-02-19T22:13:34.759Z,43.80
2019-02-19T22:16:02.959Z,42.37
2019-02-19T22:18:31.189Z,43.37
2019-02-19T22:21:18.753Z,44.07
2019-02-19T22:23:46.867Z,44.90
2019-02-19T22:26:16.016Z,45.13
2019-02-19T22:28:44.083Z,51.93
2019-02-19T22:31:12.290Z,45.60
2019-02-19T22:33:40.300Z,52.80
2019-02-19T22:36:08.263Z,57.00
2019-02-19T22:38:36.316Z,57.70
2019-02-19T22:41:04.260Z,56.53
2019-02-19T22:43:32.226Z,55.33
2019-02-19T22:46:00.193Z,56.93
2019-02-19T22:48:28.165Z,57.67
2019-02-19T22:50:56.107Z,57.87
2019-02-19T22:53:55.634Z,58.83
2019-02-19T22:56:35.019Z,59.17
2019-02-19T22:59:02.880Z,58.87
2019-02-19T23:01:37.473Z,58.03
2019-02-19T23:04:05.674Z,57.30
2019-02-19T23:06:33.707Z,57.27
2019-02-19T23:09:01.713Z,59.27
2019-02-19T23:11:31.711Z,57.87
2019-02-19T23:13:59.713Z,56.90
2019-02-19T23:16:27.951Z,59.73
2019-02-19T23:18:56.091Z,59.67
2019-02-19T23:21:23.999Z,54.80
2019-02-19T23:23:52.313Z,51.77
2019-02-19T23:26:20.282Z,56.17
2019-02-19T23:28:49.618Z,60.87
2019-02-19T23:31:17.697Z,62.40
2019-02-19T23:33:46.623Z,64.93
2019-02-19T23:36:36.802Z,63.87
2019-02-19T23:39:05.828Z,63.53
2019-02-19T23:41:35.727Z,58.20
2019-02-19T23:44:03.906Z,57.27
2019-02-19T23:46:33.121Z,57.30
2019-02-19T23:49:01.153Z,55.47
2019-02-19T23:51:29.156Z,56.00
2019-02-19T23:53:57.305Z,54.33
2019-02-19T23:56:25.541Z,56.90
2019-02-19T23:58:53.556Z,57.07
